sensor_id;sensor_type;location;lat;lon;timestamp;temperature;humidity
5675;DHT22;2860;54.284;10.158;2022-09-09T00:01:08;14.20;99.90
5675;DHT22;2860;54.284;10.158;2022-09-09T00:03:49;14.20;99.90
5675;DHT22;2860;54.284;10.158;2022-09-09T00:11:42;14.20;99.90
5675;DHT22;2860;54.284;10.158;2022-09-09T00:14:16;14.20;99.90
5675;DHT22;2860;54.284;10.158;2022-09-09T00:16:47;14.20;99.90
5675;DHT22;2860;54.284;10.158;2022-09-09T00:19:24;14.20;99.90
5675;DHT22;2860;54.284;10.158;2022-09-09T00:27:06;14.20;99.90
5675;DHT22;2860;54.284;10.158;2022-09-09T00:29:45;14.20;99.90
5675;DHT22;2860;54.284;10.158;2022-09-09T00:32:14;14.20;99.90
5675;DHT22;2860;54.284;10.158;2022-09-09T00:34:48;14.30;99.90
5675;DHT22;2860;54.284;10.158;2022-09-09T00:37:15;14.30;99.90
5675;DHT22;2860;54.284;10.158;2022-09-09T00:39:44;14.30;99.90
5675;DHT22;2860;54.284;10.158;2022-09-09T00:42:26;14.30;99.90
5675;DHT22;2860;54.284;10.158;2022-09-09T00:44:58;14.30;99.90
5675;DHT22;2860;54.284;10.158;2022-09-09T00:47:39;14.30;99.90
5675;DHT22;2860;54.284;10.158;2022-09-09T00:55:48;14.30;99.90
5675;DHT22;2860;54.284;10.158;2022-09-09T00:58:16;14.30;99.90
5675;DHT22;2860;54.284;10.158;2022-09-09T01:00:46;14.30;99.90
5675;DHT22;2860;54.284;10.158;2022-09-09T01:03:22;14.30;99.90
5675;DHT22;2860;54.284;10.158;2022-09-09T01:11:55;14.30;99.90
5675;DHT22;2860;54.284;10.158;2022-09-09T01:17:14;14.30;99.90
5675;DHT22;2860;54.284;10.158;2022-09-09T01:22:40;14.30;99.90
5675;DHT22;2860;54.284;10.158;2022-09-09T01:25:15;14.20;99.90
5675;DHT22;2860;54.284;10.158;2022-09-09T01:27:44;14.20;99.90
5675;DHT22;2860;54.284;10.158;2022-09-09T01:30:14;14.20;99.90
5675;DHT22;2860;54.284;10.158;2022-09-09T01:32:47;14.20;99.90
5675;DHT22;2860;54.284;10.158;2022-09-09T01:35:26;14.20;99.90
5675;DHT22;2860;54.284;10.158;2022-09-09T01:37:53;14.30;99.90
5675;DHT22;2860;54.284;10.158;2022-09-09T01:40:18;14.20;99.90
5675;DHT22;2860;54.284;10.158;2022-09-09T01:42:44;14.20;99.90
5675;DHT22;2860;54.284;10.158;2022-09-09T01:45:10;14.30;99.90
5675;DHT22;2860;54.284;10.158;2022-09-09T01:47:35;14.20;99.90
5675;DHT22;2860;54.284;10.158;2022-09-09T01:50:01;14.20;99.90
5675;DHT22;2860;54.284;10.158;2022-09-09T01:52:29;14.20;99.90
5675;DHT22;2860;54.284;10.158;2022-09-09T01:54:55;14.20;99.90
5675;DHT22;2860;54.284;10.158;2022-09-09T02:00:06;14.20;99.90
5675;DHT22;2860;54.284;10.158;2022-09-09T02:02:48;14.20;99.90
5675;DHT22;2860;54.284;10.158;2022-09-09T02:05:37;14.20;99.90
5675;DHT22;2860;54.284;10.158;2022-09-09T02:08:14;14.20;99.90
5675;DHT22;2860;54.284;10.158;2022-09-09T02:13:17;14.20;99.90
5675;DHT22;2860;54.284;10.158;2022-09-09T02:18:45;14.20;99.90
5675;DHT22;2860;54.284;10.158;2022-09-09T02:21:13;14.20;99.90
5675;DHT22;2860;54.284;10.158;2022-09-09T02:23:41;14.20;99.90
5675;DHT22;2860;54.284;10.158;2022-09-09T02:26:08;14.20;99.90
5675;DHT22;2860;54.284;10.158;2022-09-09T02:28:37;14.20;99.90
5675;DHT22;2860;54.284;10.158;2022-09-09T02:31:04;14.20;99.90
5675;DHT22;2860;54.284;10.158;2022-09-09T02:33:38;14.20;99.90
5675;DHT22;2860;54.284;10.158;2022-09-09T02:36:05;14.30;99.90
5675;DHT22;2860;54.284;10.158;2022-09-09T02:38:36;14.30;99.90
5675;DHT22;2860;54.284;10.158;2022-09-09T02:41:04;14.30;99.90
5675;DHT22;2860;54.284;10.158;2022-09-09T02:43:33;14.30;99.90
5675;DHT22;2860;54.284;10.158;2022-09-09T02:46:46;14.30;99.90
5675;DHT22;2860;54.284;10.158;2022-09-09T02:49:40;14.30;99.90
5675;DHT22;2860;54.284;10.158;2022-09-09T02:52:02;14.30;99.90
5675;DHT22;2860;54.284;10.158;2022-09-09T02:54:33;14.30;99.90
5675;DHT22;2860;54.284;10.158;2022-09-09T02:57:13;14.30;99.90
5675;DHT22;2860;54.284;10.158;2022-09-09T02:59:44;14.30;99.90
5675;DHT22;2860;54.284;10.158;2022-09-09T03:02:10;14.30;99.90
5675;DHT22;2860;54.284;10.158;2022-09-09T03:04:37;14.30;99.90
5675;DHT22;2860;54.284;10.158;2022-09-09T03:07:03;14.30;99.90
5675;DHT22;2860;54.284;10.158;2022-09-09T03:09:29;14.30;99.90
5675;DHT22;2860;54.284;10.158;2022-09-09T03:11:55;14.30;99.90
5675;DHT22;2860;54.284;10.158;2022-09-09T03:14:21;14.30;99.90
5675;DHT22;2860;54.284;10.158;2022-09-09T03:16:50;14.30;99.90
5675;DHT22;2860;54.284;10.158;2022-09-09T03:19:16;14.20;99.90
5675;DHT22;2860;54.284;10.158;2022-09-09T03:21:41;14.20;99.90
5675;DHT22;2860;54.284;10.158;2022-09-09T03:24:07;14.20;99.90
5675;DHT22;2860;54.284;10.158;2022-09-09T03:26:33;14.20;99.90
5675;DHT22;2860;54.284;10.158;2022-09-09T03:28:58;14.20;99.90
5675;DHT22;2860;54.284;10.158;2022-09-09T03:31:26;14.20;99.90
5675;DHT22;2860;54.284;10.158;2022-09-09T03:33:51;14.20;99.90
5675;DHT22;2860;54.284;10.158;2022-09-09T03:36:17;14.30;99.90
5675;DHT22;2860;54.284;10.158;2022-09-09T03:38:42;14.30;99.90
5675;DHT22;2860;54.284;10.158;2022-09-09T03:41:08;14.20;99.90
5675;DHT22;2860;54.284;10.158;2022-09-09T03:43:34;14.20;99.90
5675;DHT22;2860;54.284;10.158;2022-09-09T03:46:00;14.20;99.90
5675;DHT22;2860;54.284;10.158;2022-09-09T03:48:26;14.20;99.90
5675;DHT22;2860;54.284;10.158;2022-09-09T03:50:54;14.20;99.90
5675;DHT22;2860;54.284;10.158;2022-09-09T03:53:22;14.10;99.90
5675;DHT22;2860;54.284;10.158;2022-09-09T03:55:50;14.20;99.90
5675;DHT22;2860;54.284;10.158;2022-09-09T03:58:18;14.20;99.90
5675;DHT22;2860;54.284;10.158;2022-09-09T04:00:55;14.20;99.90
5675;DHT22;2860;54.284;10.158;2022-09-09T04:03:22;14.10;99.90
5675;DHT22;2860;54.284;10.158;2022-09-09T04:05:52;14.10;99.90
5675;DHT22;2860;54.284;10.158;2022-09-09T04:08:19;14.10;99.90
5675;DHT22;2860;54.284;10.158;2022-09-09T04:10:47;14.10;99.90
5675;DHT22;2860;54.284;10.158;2022-09-09T04:13:13;14.10;99.90
5675;DHT22;2860;54.284;10.158;2022-09-09T04:15:40;14.10;99.90
5675;DHT22;2860;54.284;10.158;2022-09-09T04:18:06;14.10;99.90
5675;DHT22;2860;54.284;10.158;2022-09-09T04:20:32;14.10;99.90
5675;DHT22;2860;54.284;10.158;2022-09-09T04:22:58;14.10;99.90
5675;DHT22;2860;54.284;10.158;2022-09-09T04:25:23;14.10;99.90
5675;DHT22;2860;54.284;10.158;2022-09-09T04:27:54;14.10;99.90
5675;DHT22;2860;54.284;10.158;2022-09-09T04:30:20;14.10;99.90
5675;DHT22;2860;54.284;10.158;2022-09-09T04:32:46;14.00;99.90
5675;DHT22;2860;54.284;10.158;2022-09-09T04:35:11;14.00;99.90
5675;DHT22;2860;54.284;10.158;2022-09-09T04:37:37;13.90;99.90
5675;DHT22;2860;54.284;10.158;2022-09-09T04:40:03;13.90;99.90
5675;DHT22;2860;54.284;10.158;2022-09-09T04:42:28;13.90;99.90
5675;DHT22;2860;54.284;10.158;2022-09-09T04:44:54;13.90;99.90
5675;DHT22;2860;54.284;10.158;2022-09-09T04:47:19;13.90;99.90
5675;DHT22;2860;54.284;10.158;2022-09-09T04:49:45;13.90;99.90
5675;DHT22;2860;54.284;10.158;2022-09-09T04:52:11;13.90;99.90
5675;DHT22;2860;54.284;10.158;2022-09-09T04:54:36;13.90;99.90
5675;DHT22;2860;54.284;10.158;2022-09-09T04:57:02;13.90;99.90
5675;DHT22;2860;54.284;10.158;2022-09-09T04:59:28;14.00;99.90
5675;DHT22;2860;54.284;10.158;2022-09-09T05:01:53;13.90;99.90
5675;DHT22;2860;54.284;10.158;2022-09-09T05:04:21;14.00;99.90
5675;DHT22;2860;54.284;10.158;2022-09-09T05:06:46;14.00;99.90
5675;DHT22;2860;54.284;10.158;2022-09-09T05:09:12;14.00;99.90
5675;DHT22;2860;54.284;10.158;2022-09-09T05:11:37;14.00;99.90
5675;DHT22;2860;54.284;10.158;2022-09-09T05:14:03;14.10;99.90
5675;DHT22;2860;54.284;10.158;2022-09-09T05:16:29;14.10;99.90
5675;DHT22;2860;54.284;10.158;2022-09-09T05:18:55;14.10;99.90
5675;DHT22;2860;54.284;10.158;2022-09-09T05:21:23;14.20;99.90
5675;DHT22;2860;54.284;10.158;2022-09-09T05:23:50;14.20;99.90
5675;DHT22;2860;54.284;10.158;2022-09-09T05:26:18;14.20;99.90
5675;DHT22;2860;54.284;10.158;2022-09-09T05:28:44;14.20;99.90
5675;DHT22;2860;54.284;10.158;2022-09-09T05:31:11;14.20;99.90
5675;DHT22;2860;54.284;10.158;2022-09-09T05:33:38;14.20;99.90
5675;DHT22;2860;54.284;10.158;2022-09-09T05:36:10;14.20;99.90
5675;DHT22;2860;54.284;10.158;2022-09-09T05:38:38;14.20;99.90
5675;DHT22;2860;54.284;10.158;2022-09-09T05:41:04;14.30;99.90
5675;DHT22;2860;54.284;10.158;2022-09-09T05:43:30;14.30;99.90
5675;DHT22;2860;54.284;10.158;2022-09-09T05:46:07;14.30;99.90
5675;DHT22;2860;54.284;10.158;2022-09-09T05:48:37;14.30;99.90
5675;DHT22;2860;54.284;10.158;2022-09-09T05:51:04;14.30;99.90
5675;DHT22;2860;54.284;10.158;2022-09-09T05:53:32;14.40;99.90
5675;DHT22;2860;54.284;10.158;2022-09-09T05:56:22;14.40;99.90
5675;DHT22;2860;54.284;10.158;2022-09-09T05:58:49;14.40;99.90
5675;DHT22;2860;54.284;10.158;2022-09-09T06:03:46;14.40;99.90
5675;DHT22;2860;54.284;10.158;2022-09-09T06:06:14;14.50;99.90
5675;DHT22;2860;54.284;10.158;2022-09-09T06:08:42;14.40;99.90
5675;DHT22;2860;54.284;10.158;2022-09-09T06:11:14;14.50;99.90
5675;DHT22;2860;54.284;10.158;2022-09-09T06:13:40;14.50;99.90
5675;DHT22;2860;54.284;10.158;2022-09-09T06:16:11;14.60;99.90
5675;DHT22;2860;54.284;10.158;2022-09-09T06:18:41;14.60;99.90
5675;DHT22;2860;54.284;10.158;2022-09-09T06:21:13;14.60;99.90
5675;DHT22;2860;54.284;10.158;2022-09-09T06:23:40;14.70;99.90
5675;DHT22;2860;54.284;10.158;2022-09-09T06:28:43;14.80;99.90
5675;DHT22;2860;54.284;10.158;2022-09-09T06:31:11;14.90;99.90
5675;DHT22;2860;54.284;10.158;2022-09-09T06:33:39;14.90;99.90
5675;DHT22;2860;54.284;10.158;2022-09-09T06:36:07;14.90;99.90
5675;DHT22;2860;54.284;10.158;2022-09-09T06:38:35;14.90;99.90
5675;DHT22;2860;54.284;10.158;2022-09-09T06:41:01;14.90;99.90
5675;DHT22;2860;54.284;10.158;2022-09-09T06:43:27;15.00;99.90
5675;DHT22;2860;54.284;10.158;2022-09-09T06:45:57;15.00;99.90
5675;DHT22;2860;54.284;10.158;2022-09-09T06:48:23;15.10;99.90
5675;DHT22;2860;54.284;10.158;2022-09-09T06:51:01;15.10;99.90
5675;DHT22;2860;54.284;10.158;2022-09-09T06:53:27;15.20;99.90
5675;DHT22;2860;54.284;10.158;2022-09-09T06:55:53;15.20;99.90
5675;DHT22;2860;54.284;10.158;2022-09-09T06:58:20;15.30;99.90
5675;DHT22;2860;54.284;10.158;2022-09-09T07:00:47;15.30;99.90
5675;DHT22;2860;54.284;10.158;2022-09-09T07:03:13;15.40;99.90
5675;DHT22;2860;54.284;10.158;2022-09-09T07:05:38;15.40;99.90
5675;DHT22;2860;54.284;10.158;2022-09-09T07:08:04;15.40;99.90
5675;DHT22;2860;54.284;10.158;2022-09-09T07:10:30;15.40;99.90
5675;DHT22;2860;54.284;10.158;2022-09-09T07:12:56;15.50;99.90
5675;DHT22;2860;54.284;10.158;2022-09-09T07:15:21;15.60;99.90
5675;DHT22;2860;54.284;10.158;2022-09-09T07:17:48;15.70;99.90
5675;DHT22;2860;54.284;10.158;2022-09-09T07:20:14;15.80;99.90
5675;DHT22;2860;54.284;10.158;2022-09-09T07:22:40;15.90;99.90
5675;DHT22;2860;54.284;10.158;2022-09-09T07:25:06;16.00;99.90
5675;DHT22;2860;54.284;10.158;2022-09-09T07:27:32;16.10;99.90
5675;DHT22;2860;54.284;10.158;2022-09-09T07:29:58;16.10;99.90
5675;DHT22;2860;54.284;10.158;2022-09-09T07:32:24;16.20;99.90
5675;DHT22;2860;54.284;10.158;2022-09-09T07:34:51;16.20;99.90
5675;DHT22;2860;54.284;10.158;2022-09-09T07:37:17;16.10;99.90
5675;DHT22;2860;54.284;10.158;2022-09-09T07:39:43;16.10;99.90
5675;DHT22;2860;54.284;10.158;2022-09-09T07:42:09;16.20;99.90
5675;DHT22;2860;54.284;10.158;2022-09-09T07:44:37;16.30;99.90
5675;DHT22;2860;54.284;10.158;2022-09-09T07:47:05;16.30;99.90
5675;DHT22;2860;54.284;10.158;2022-09-09T07:49:31;16.20;99.90
5675;DHT22;2860;54.284;10.158;2022-09-09T07:51:57;16.20;99.90
5675;DHT22;2860;54.284;10.158;2022-09-09T07:54:23;16.30;99.90
5675;DHT22;2860;54.284;10.158;2022-09-09T07:56:49;16.50;99.90
5675;DHT22;2860;54.284;10.158;2022-09-09T07:59:36;16.60;99.90
5675;DHT22;2860;54.284;10.158;2022-09-09T08:02:01;16.70;99.90
5675;DHT22;2860;54.284;10.158;2022-09-09T08:04:27;16.80;99.90
5675;DHT22;2860;54.284;10.158;2022-09-09T08:06:58;17.00;99.90
5675;DHT22;2860;54.284;10.158;2022-09-09T08:09:24;17.20;99.90
5675;DHT22;2860;54.284;10.158;2022-09-09T08:11:52;17.40;99.90
5675;DHT22;2860;54.284;10.158;2022-09-09T08:14:18;17.50;99.90
5675;DHT22;2860;54.284;10.158;2022-09-09T08:16:46;17.60;99.90
5675;DHT22;2860;54.284;10.158;2022-09-09T08:19:12;17.70;99.90
5675;DHT22;2860;54.284;10.158;2022-09-09T08:21:39;17.80;99.90
5675;DHT22;2860;54.284;10.158;2022-09-09T08:24:06;17.90;99.90
5675;DHT22;2860;54.284;10.158;2022-09-09T08:26:37;18.10;99.90
5675;DHT22;2860;54.284;10.158;2022-09-09T08:29:05;18.30;99.90
5675;DHT22;2860;54.284;10.158;2022-09-09T08:31:45;18.50;99.90
5675;DHT22;2860;54.284;10.158;2022-09-09T08:34:11;18.60;99.90
5675;DHT22;2860;54.284;10.158;2022-09-09T08:36:39;18.70;99.90
5675;DHT22;2860;54.284;10.158;2022-09-09T08:39:08;18.70;99.90
5675;DHT22;2860;54.284;10.158;2022-09-09T08:41:56;18.40;99.90
5675;DHT22;2860;54.284;10.158;2022-09-09T08:55:45;18.50;99.90
5675;DHT22;2860;54.284;10.158;2022-09-09T08:58:19;18.40;99.90
5675;DHT22;2860;54.284;10.158;2022-09-09T09:01:01;18.40;99.90
5675;DHT22;2860;54.284;10.158;2022-09-09T09:09:02;18.70;99.90
5675;DHT22;2860;54.284;10.158;2022-09-09T09:11:36;18.90;99.90
5675;DHT22;2860;54.284;10.158;2022-09-09T09:14:16;19.10;99.90
5675;DHT22;2860;54.284;10.158;2022-09-09T09:17:10;19.20;99.90
5675;DHT22;2860;54.284;10.158;2022-09-09T09:19:39;19.50;99.90
5675;DHT22;2860;54.284;10.158;2022-09-09T09:22:32;19.90;99.90
5675;DHT22;2860;54.284;10.158;2022-09-09T09:27:49;20.30;99.90
5675;DHT22;2860;54.284;10.158;2022-09-09T09:30:20;20.50;99.90
5675;DHT22;2860;54.284;10.158;2022-09-09T09:33:16;20.70;99.90
5675;DHT22;2860;54.284;10.158;2022-09-09T09:35:42;21.10;99.90
5675;DHT22;2860;54.284;10.158;2022-09-09T09:38:23;21.10;99.90
5675;DHT22;2860;54.284;10.158;2022-09-09T09:40:50;21.20;99.90
5675;DHT22;2860;54.284;10.158;2022-09-09T09:43:24;21.50;99.90
5675;DHT22;2860;54.284;10.158;2022-09-09T09:45:50;21.50;99.90
5675;DHT22;2860;54.284;10.158;2022-09-09T09:48:16;21.50;99.90
5675;DHT22;2860;54.284;10.158;2022-09-09T09:50:58;21.10;99.90
5675;DHT22;2860;54.284;10.158;2022-09-09T09:53:27;20.80;99.90
5675;DHT22;2860;54.284;10.158;2022-09-09T09:55:57;20.50;99.90
5675;DHT22;2860;54.284;10.158;2022-09-09T09:58:25;20.30;99.90
5675;DHT22;2860;54.284;10.158;2022-09-09T10:00:53;20.20;99.90
5675;DHT22;2860;54.284;10.158;2022-09-09T10:03:29;20.10;99.90
5675;DHT22;2860;54.284;10.158;2022-09-09T10:05:55;20.30;99.90
5675;DHT22;2860;54.284;10.158;2022-09-09T10:08:22;20.60;99.90
5675;DHT22;2860;54.284;10.158;2022-09-09T10:10:59;20.80;99.90
5675;DHT22;2860;54.284;10.158;2022-09-09T10:13:35;20.90;99.90
5675;DHT22;2860;54.284;10.158;2022-09-09T10:16:16;20.90;99.90
5675;DHT22;2860;54.284;10.158;2022-09-09T10:21:40;21.10;99.90
5675;DHT22;2860;54.284;10.158;2022-09-09T10:27:11;21.30;99.90
5675;DHT22;2860;54.284;10.158;2022-09-09T10:32:35;21.40;99.90
5675;DHT22;2860;54.284;10.158;2022-09-09T10:40:37;21.20;99.90
5675;DHT22;2860;54.284;10.158;2022-09-09T10:45:39;21.00;99.90
5675;DHT22;2860;54.284;10.158;2022-09-09T10:48:25;21.00;99.90
5675;DHT22;2860;54.284;10.158;2022-09-09T10:56:26;20.90;99.90
5675;DHT22;2860;54.284;10.158;2022-09-09T10:59:12;20.80;99.90
5675;DHT22;2860;54.284;10.158;2022-09-09T11:01:55;20.70;99.90
5675;DHT22;2860;54.284;10.158;2022-09-09T11:04:27;20.80;99.90
5675;DHT22;2860;54.284;10.158;2022-09-09T11:06:56;20.90;99.90
5675;DHT22;2860;54.284;10.158;2022-09-09T11:09:28;21.00;99.90
5675;DHT22;2860;54.284;10.158;2022-09-09T11:11:57;21.00;99.90
5675;DHT22;2860;54.284;10.158;2022-09-09T11:14:39;21.10;99.90
5675;DHT22;2860;54.284;10.158;2022-09-09T11:17:15;21.10;99.90
5675;DHT22;2860;54.284;10.158;2022-09-09T11:19:44;21.30;99.90
5675;DHT22;2860;54.284;10.158;2022-09-09T11:22:37;21.50;99.90
5675;DHT22;2860;54.284;10.158;2022-09-09T11:27:53;22.00;99.90
5675;DHT22;2860;54.284;10.158;2022-09-09T11:30:49;22.30;99.90
5675;DHT22;2860;54.284;10.158;2022-09-09T11:33:56;22.40;99.90
5675;DHT22;2860;54.284;10.158;2022-09-09T11:36:30;22.70;99.90
5675;DHT22;2860;54.284;10.158;2022-09-09T11:41:45;23.20;99.90
5675;DHT22;2860;54.284;10.158;2022-09-09T11:44:13;23.20;99.90
5675;DHT22;2860;54.284;10.158;2022-09-09T11:46:42;23.10;99.90
5675;DHT22;2860;54.284;10.158;2022-09-09T11:49:28;23.20;99.90
5675;DHT22;2860;54.284;10.158;2022-09-09T11:51:55;23.20;99.90
5675;DHT22;2860;54.284;10.158;2022-09-09T11:54:29;23.00;99.90
5675;DHT22;2860;54.284;10.158;2022-09-09T11:56:55;22.80;99.90
5675;DHT22;2860;54.284;10.158;2022-09-09T11:59:33;22.50;99.90
5675;DHT22;2860;54.284;10.158;2022-09-09T12:02:18;22.30;99.90
5675;DHT22;2860;54.284;10.158;2022-09-09T12:04:58;22.50;99.90
5675;DHT22;2860;54.284;10.158;2022-09-09T12:07:32;22.90;99.90
5675;DHT22;2860;54.284;10.158;2022-09-09T12:10:20;23.10;99.90
5675;DHT22;2860;54.284;10.158;2022-09-09T12:12:44;23.20;99.90
5675;DHT22;2860;54.284;10.158;2022-09-09T12:17:43;23.60;99.90
5675;DHT22;2860;54.284;10.158;2022-09-09T12:23:01;23.50;99.90
5675;DHT22;2860;54.284;10.158;2022-09-09T12:28:36;23.50;99.90
5675;DHT22;2860;54.284;10.158;2022-09-09T12:33:37;23.70;99.90
5675;DHT22;2860;54.284;10.158;2022-09-09T12:36:03;23.50;99.90
5675;DHT22;2860;54.284;10.158;2022-09-09T12:38:36;23.30;99.90
5675;DHT22;2860;54.284;10.158;2022-09-09T12:41:03;23.10;99.90
5675;DHT22;2860;54.284;10.158;2022-09-09T12:43:29;22.90;99.90
5675;DHT22;2860;54.284;10.158;2022-09-09T12:45:59;22.70;99.90
5675;DHT22;2860;54.284;10.158;2022-09-09T12:48:37;22.60;99.90
5675;DHT22;2860;54.284;10.158;2022-09-09T12:51:05;22.60;99.90
5675;DHT22;2860;54.284;10.158;2022-09-09T12:53:35;22.60;99.90
5675;DHT22;2860;54.284;10.158;2022-09-09T12:56:05;22.60;99.90
5675;DHT22;2860;54.284;10.158;2022-09-09T12:58:33;22.70;99.90
5675;DHT22;2860;54.284;10.158;2022-09-09T13:01:01;22.60;99.90
5675;DHT22;2860;54.284;10.158;2022-09-09T13:03:30;22.70;99.90
5675;DHT22;2860;54.284;10.158;2022-09-09T13:05:58;22.70;99.90
5675;DHT22;2860;54.284;10.158;2022-09-09T13:08:25;22.70;99.90
5675;DHT22;2860;54.284;10.158;2022-09-09T13:14:12;22.70;99.90
5675;DHT22;2860;54.284;10.158;2022-09-09T13:16:26;22.70;99.90
5675;DHT22;2860;54.284;10.158;2022-09-09T13:18:52;22.80;99.90
5675;DHT22;2860;54.284;10.158;2022-09-09T13:21:18;22.70;99.90
5675;DHT22;2860;54.284;10.158;2022-09-09T13:23:49;22.70;99.90
5675;DHT22;2860;54.284;10.158;2022-09-09T13:26:23;22.70;99.90
5675;DHT22;2860;54.284;10.158;2022-09-09T13:28:50;22.70;99.90
5675;DHT22;2860;54.284;10.158;2022-09-09T13:31:27;22.60;99.90
5675;DHT22;2860;54.284;10.158;2022-09-09T13:33:53;22.50;99.90
5675;DHT22;2860;54.284;10.158;2022-09-09T13:36:31;22.50;99.90
5675;DHT22;2860;54.284;10.158;2022-09-09T13:38:59;22.40;99.90
5675;DHT22;2860;54.284;10.158;2022-09-09T13:41:36;22.20;99.90
5675;DHT22;2860;54.284;10.158;2022-09-09T13:44:02;21.90;99.90
5675;DHT22;2860;54.284;10.158;2022-09-09T13:46:39;21.70;99.90
5675;DHT22;2860;54.284;10.158;2022-09-09T13:51:41;21.70;99.90
5675;DHT22;2860;54.284;10.158;2022-09-09T13:54:11;21.60;99.90
5675;DHT22;2860;54.284;10.158;2022-09-09T13:56:38;21.50;99.90
5675;DHT22;2860;54.284;10.158;2022-09-09T13:59:09;21.40;99.90
5675;DHT22;2860;54.284;10.158;2022-09-09T14:01:35;21.40;99.90
5675;DHT22;2860;54.284;10.158;2022-09-09T14:04:03;21.50;99.90
5675;DHT22;2860;54.284;10.158;2022-09-09T14:06:29;21.60;99.90
5675;DHT22;2860;54.284;10.158;2022-09-09T14:08:55;21.70;99.90
5675;DHT22;2860;54.284;10.158;2022-09-09T14:11:21;21.90;99.90
5675;DHT22;2860;54.284;10.158;2022-09-09T14:13:47;21.90;99.90
5675;DHT22;2860;54.284;10.158;2022-09-09T14:16:15;22.00;99.90
5675;DHT22;2860;54.284;10.158;2022-09-09T14:18:41;22.10;99.90
5675;DHT22;2860;54.284;10.158;2022-09-09T14:21:07;22.00;99.90
5675;DHT22;2860;54.284;10.158;2022-09-09T14:23:34;21.90;99.90
5675;DHT22;2860;54.284;10.158;2022-09-09T14:25:59;21.60;99.90
5675;DHT22;2860;54.284;10.158;2022-09-09T14:28:25;21.50;99.90
5675;DHT22;2860;54.284;10.158;2022-09-09T14:30:51;21.30;99.90
5675;DHT22;2860;54.284;10.158;2022-09-09T14:33:16;21.00;99.90
5675;DHT22;2860;54.284;10.158;2022-09-09T14:35:43;20.80;99.90
5675;DHT22;2860;54.284;10.158;2022-09-09T14:38:09;20.50;99.90
5675;DHT22;2860;54.284;10.158;2022-09-09T14:40:36;20.30;99.90
5675;DHT22;2860;54.284;10.158;2022-09-09T14:43:04;20.20;99.90
5675;DHT22;2860;54.284;10.158;2022-09-09T14:45:30;20.10;99.90
5675;DHT22;2860;54.284;10.158;2022-09-09T14:47:56;20.00;99.90
5675;DHT22;2860;54.284;10.158;2022-09-09T14:50:23;19.80;99.90
5675;DHT22;2860;54.284;10.158;2022-09-09T14:52:49;19.70;99.90
5675;DHT22;2860;54.284;10.158;2022-09-09T14:55:15;19.60;99.90
5675;DHT22;2860;54.284;10.158;2022-09-09T14:57:41;19.60;99.90
5675;DHT22;2860;54.284;10.158;2022-09-09T15:00:09;19.40;99.90
5675;DHT22;2860;54.284;10.158;2022-09-09T15:02:34;19.30;99.90
5675;DHT22;2860;54.284;10.158;2022-09-09T15:05:00;19.10;99.90
5675;DHT22;2860;54.284;10.158;2022-09-09T15:07:26;19.00;99.90
5675;DHT22;2860;54.284;10.158;2022-09-09T15:09:53;18.80;99.90
5675;DHT22;2860;54.284;10.158;2022-09-09T15:12:19;18.60;99.90
5675;DHT22;2860;54.284;10.158;2022-09-09T15:14:45;18.50;99.90
5675;DHT22;2860;54.284;10.158;2022-09-09T15:17:11;18.30;99.90
5675;DHT22;2860;54.284;10.158;2022-09-09T15:19:37;18.20;99.90
5675;DHT22;2860;54.284;10.158;2022-09-09T15:22:04;18.10;99.90
5675;DHT22;2860;54.284;10.158;2022-09-09T15:24:31;18.00;99.90
5675;DHT22;2860;54.284;10.158;2022-09-09T15:26:57;17.90;99.90
5675;DHT22;2860;54.284;10.158;2022-09-09T15:29:23;17.70;99.90
5675;DHT22;2860;54.284;10.158;2022-09-09T15:31:49;17.60;99.90
5675;DHT22;2860;54.284;10.158;2022-09-09T15:34:14;17.50;99.90
5675;DHT22;2860;54.284;10.158;2022-09-09T15:36:44;17.40;99.90
5675;DHT22;2860;54.284;10.158;2022-09-09T15:39:13;17.30;99.90
5675;DHT22;2860;54.284;10.158;2022-09-09T15:41:41;17.20;99.90
5675;DHT22;2860;54.284;10.158;2022-09-09T15:44:08;17.10;99.90
5675;DHT22;2860;54.284;10.158;2022-09-09T15:46:39;17.00;99.90
5675;DHT22;2860;54.284;10.158;2022-09-09T15:49:06;17.00;99.90
5675;DHT22;2860;54.284;10.158;2022-09-09T15:51:34;16.90;99.90
5675;DHT22;2860;54.284;10.158;2022-09-09T15:54:00;16.90;99.90
5675;DHT22;2860;54.284;10.158;2022-09-09T15:56:27;16.90;99.90
5675;DHT22;2860;54.284;10.158;2022-09-09T15:58:55;16.90;99.90
5675;DHT22;2860;54.284;10.158;2022-09-09T16:01:20;16.90;99.90
5675;DHT22;2860;54.284;10.158;2022-09-09T16:03:46;16.90;99.90
5675;DHT22;2860;54.284;10.158;2022-09-09T16:06:14;16.80;99.90
5675;DHT22;2860;54.284;10.158;2022-09-09T16:08:42;16.80;99.90
5675;DHT22;2860;54.284;10.158;2022-09-09T16:11:13;16.80;99.90
5675;DHT22;2860;54.284;10.158;2022-09-09T16:13:44;16.80;99.90
5675;DHT22;2860;54.284;10.158;2022-09-09T16:16:12;16.80;99.90
5675;DHT22;2860;54.284;10.158;2022-09-09T16:18:44;16.80;99.90
5675;DHT22;2860;54.284;10.158;2022-09-09T16:21:17;16.80;99.90
5675;DHT22;2860;54.284;10.158;2022-09-09T16:23:44;16.80;99.90
5675;DHT22;2860;54.284;10.158;2022-09-09T16:26:14;16.80;99.90
5675;DHT22;2860;54.284;10.158;2022-09-09T16:28:40;16.70;99.90
5675;DHT22;2860;54.284;10.158;2022-09-09T16:31:07;16.70;99.90
5675;DHT22;2860;54.284;10.158;2022-09-09T16:33:33;16.70;99.90
5675;DHT22;2860;54.284;10.158;2022-09-09T16:36:08;16.60;99.90
5675;DHT22;2860;54.284;10.158;2022-09-09T16:38:35;16.60;99.90
5675;DHT22;2860;54.284;10.158;2022-09-09T16:41:02;16.50;99.90
5675;DHT22;2860;54.284;10.158;2022-09-09T16:43:28;16.50;99.90
5675;DHT22;2860;54.284;10.158;2022-09-09T16:45:53;16.40;99.90
5675;DHT22;2860;54.284;10.158;2022-09-09T16:48:19;16.30;99.90
5675;DHT22;2860;54.284;10.158;2022-09-09T16:50:45;16.30;99.90
5675;DHT22;2860;54.284;10.158;2022-09-09T16:53:11;16.20;99.90
5675;DHT22;2860;54.284;10.158;2022-09-09T16:55:41;16.10;99.90
5675;DHT22;2860;54.284;10.158;2022-09-09T16:58:12;16.10;99.90
5675;DHT22;2860;54.284;10.158;2022-09-09T17:00:38;16.10;99.90
5675;DHT22;2860;54.284;10.158;2022-09-09T17:03:04;16.00;99.90
5675;DHT22;2860;54.284;10.158;2022-09-09T17:05:29;15.90;99.90
5675;DHT22;2860;54.284;10.158;2022-09-09T17:07:55;15.80;99.90
5675;DHT22;2860;54.284;10.158;2022-09-09T17:10:23;15.80;99.90
5675;DHT22;2860;54.284;10.158;2022-09-09T17:12:49;15.70;99.90
5675;DHT22;2860;54.284;10.158;2022-09-09T17:15:14;15.70;99.90
5675;DHT22;2860;54.284;10.158;2022-09-09T17:17:40;15.60;99.90
5675;DHT22;2860;54.284;10.158;2022-09-09T17:20:08;15.60;99.90
5675;DHT22;2860;54.284;10.158;2022-09-09T17:22:34;15.60;99.90
5675;DHT22;2860;54.284;10.158;2022-09-09T17:25:00;15.60;99.90
5675;DHT22;2860;54.284;10.158;2022-09-09T17:27:25;15.60;99.90
5675;DHT22;2860;54.284;10.158;2022-09-09T17:29:51;15.50;99.90
5675;DHT22;2860;54.284;10.158;2022-09-09T17:32:17;15.50;99.90
5675;DHT22;2860;54.284;10.158;2022-09-09T17:34:43;15.50;99.90
5675;DHT22;2860;54.284;10.158;2022-09-09T17:37:10;15.50;99.90
5675;DHT22;2860;54.284;10.158;2022-09-09T17:39:35;15.40;99.90
5675;DHT22;2860;54.284;10.158;2022-09-09T17:42:01;15.40;99.90
5675;DHT22;2860;54.284;10.158;2022-09-09T17:44:26;15.40;99.90